createdAt,value
2019-04-20T00:01:01.691Z,64.48
2019-04-20T00:03:40.108Z,64.86
2019-04-20T00:06:09.172Z,65.55
2019-04-20T00:08:42.746Z,65.38
2019-04-20T00:11:24.854Z,65.48
2019-04-20T00:13:59.336Z,66.37
2019-04-20T00:16:21.277Z,66.77
2019-04-20T00:18:56.590Z,66.67
2019-04-20T00:21:43.121Z,66.93
2019-04-20T00:24:22.841Z,68.21
2019-04-20T00:29:39.367Z,67.14
2019-04-20T00:32:06.331Z,66.56
2019-04-20T00:34:35.064Z,66.62
2019-04-20T00:37:05.216Z,66.84
2019-04-20T00:39:36.225Z,67.62
2019-04-20T00:42:13.322Z,68.68
2019-04-20T00:44:45.840Z,69.19
2019-04-20T00:47:32.292Z,68.63
2019-04-20T00:50:08.142Z,69.15
2019-04-20T00:52:32.824Z,69.59
2019-04-20T00:54:58.085Z,69.44
2019-04-20T00:57:38.040Z,69.17
2019-04-20T01:00:21.598Z,69.31
2019-04-20T01:02:53.279Z,68.70
2019-04-20T01:05:29.902Z,68.01
2019-04-20T01:07:56.983Z,67.98
2019-04-20T01:10:37.085Z,68.03
2019-04-20T01:13:08.013Z,67.00
2019-04-20T01:15:46.254Z,66.51
2019-04-20T01:18:10.774Z,67.08
2019-04-20T01:20:43.084Z,67.65
2019-04-20T01:23:20.762Z,67.55
2019-04-20T01:25:56.839Z,67.32
2019-04-20T01:28:37.570Z,67.42
2019-04-20T01:31:06.744Z,67.03
2019-04-20T01:33:42.457Z,66.97
2019-04-20T01:36:20.223Z,66.28
2019-04-20T01:38:52.242Z,66.38
2019-04-20T01:41:09.671Z,66.37
2019-04-20T01:43:43.630Z,65.90
2019-04-20T01:46:19.898Z,65.73
2019-04-20T01:48:48.686Z,65.43
2019-04-20T01:51:26.400Z,65.19
2019-04-20T01:54:13.506Z,65.25
2019-04-20T01:56:43.439Z,65.30
2019-04-20T01:59:20.153Z,65.43
2019-04-20T02:01:55.643Z,65.51
2019-04-20T02:04:40.952Z,65.60
2019-04-20T02:07:12.008Z,65.68
2019-04-20T02:09:51.374Z,65.69
2019-04-20T02:12:22.336Z,65.85
2019-04-20T02:14:57.179Z,65.75
2019-04-20T02:17:31.912Z,65.78
2019-04-20T02:20:19.840Z,65.82
2019-04-20T02:22:46.566Z,65.86
2019-04-20T02:25:09.946Z,65.90
2019-04-20T02:27:48.747Z,66.32
2019-04-20T02:30:47.550Z,67.32
2019-04-20T02:36:04.118Z,68.26
2019-04-20T02:39:05.739Z,68.32
2019-04-20T02:41:17.765Z,68.69
2019-04-20T02:44:04.412Z,68.97
2019-04-20T02:46:22.497Z,68.70
2019-04-20T02:49:01.310Z,68.73
2019-04-20T02:54:13.097Z,69.41
2019-04-20T02:56:41.340Z,70.24
2019-04-20T02:59:42.312Z,70.72
2019-04-20T03:01:30.950Z,71.22
2019-04-20T03:03:51.145Z,70.85
2019-04-20T03:06:30.463Z,71.15
2019-04-20T03:09:22.530Z,71.46
2019-04-20T03:11:59.774Z,71.50
2019-04-20T03:14:19.091Z,71.40
2019-04-20T03:16:56.476Z,71.32
2019-04-20T03:19:25.696Z,70.78
2019-04-20T03:22:09.731Z,70.70
2019-04-20T03:24:45.450Z,70.95
2019-04-20T03:27:07.987Z,71.39
2019-04-20T03:29:56.236Z,71.28
2019-04-20T03:35:12.231Z,71.11
2019-04-20T03:37:44.110Z,70.78
2019-04-20T03:40:04.317Z,70.11
2019-04-20T03:42:24.957Z,70.20
2019-04-20T03:45:03.403Z,70.10
2019-04-20T03:47:38.389Z,69.90
2019-04-20T03:50:31.021Z,69.49
2019-04-20T03:53:02.782Z,69.48
2019-04-20T03:55:37.053Z,69.55
2019-04-20T03:58:15.334Z,69.68
2019-04-20T04:00:50.477Z,70.73
2019-04-20T04:04:05.378Z,70.59
2019-04-20T04:06:12.890Z,71.16
2019-04-20T04:08:39.523Z,69.74
2019-04-20T04:11:26.078Z,69.28
2019-04-20T04:13:41.923Z,68.92
2019-04-20T04:16:17.315Z,68.00
2019-04-20T04:18:59.174Z,67.51
2019-04-20T04:21:41.166Z,67.96
2019-04-20T04:24:09.460Z,67.58
2019-04-20T04:26:45.614Z,67.91
2019-04-20T04:29:27.220Z,67.72
2019-04-20T04:32:03.666Z,66.68
2019-04-20T04:34:31.039Z,66.02
2019-04-20T04:37:03.465Z,64.80
2019-04-20T04:39:35.400Z,63.89
2019-04-20T04:42:16.931Z,63.07
2019-04-20T04:44:34.337Z,61.64
2019-04-20T04:47:01.085Z,60.21
2019-04-20T04:49:35.075Z,59.79
2019-04-20T04:52:10.246Z,57.80
2019-04-20T04:54:46.213Z,57.79
2019-04-20T04:57:09.547Z,50.12
2019-04-20T04:59:42.567Z,41.79
2019-04-20T05:02:14.255Z,36.23
2019-04-20T05:05:15.374Z,33.79
2019-04-20T05:07:46.654Z,31.88
2019-04-20T05:10:05.579Z,31.56
2019-04-20T05:12:38.845Z,28.37
2019-04-20T05:15:21.226Z,26.94
2019-04-20T05:18:06.801Z,25.28
2019-04-20T05:20:47.234Z,25.37
2019-04-20T05:23:30.643Z,24.55
2019-04-20T05:26:14.232Z,24.02
2019-04-20T05:28:42.123Z,21.65
2019-04-20T05:31:05.000Z,21.06
2019-04-20T05:34:02.360Z,22.02
2019-04-20T05:36:29.594Z,20.47
2019-04-20T05:39:17.697Z,20.79
2019-04-20T05:41:38.420Z,20.25
2019-04-20T05:44:09.915Z,20.42
2019-04-20T05:46:50.449Z,20.57
2019-04-20T05:49:23.063Z,19.11
2019-04-20T05:51:54.412Z,19.22
2019-04-20T05:54:36.360Z,18.37
2019-04-20T05:57:10.311Z,19.16
2019-04-20T05:59:45.330Z,19.04
2019-04-20T06:02:11.326Z,18.68
2019-04-20T06:04:58.389Z,19.92
2019-04-20T06:07:22.796Z,20.52
2019-04-20T06:09:54.530Z,19.76
2019-04-20T06:12:30.001Z,19.32
2019-04-20T06:14:53.792Z,18.63
2019-04-20T06:17:40.051Z,19.30
2019-04-20T06:20:16.902Z,18.65
2019-04-20T06:22:48.349Z,18.71
2019-04-20T06:25:39.103Z,19.11
2019-04-20T06:27:59.615Z,18.97
2019-04-20T06:30:27.341Z,17.82
2019-04-20T06:34:19.342Z,17.94
2019-04-20T06:36:43.117Z,16.92
2019-04-20T06:39:17.456Z,17.03
2019-04-20T06:42:05.813Z,17.88
2019-04-20T06:44:22.839Z,17.77
2019-04-20T06:46:58.754Z,18.46
2019-04-20T06:49:29.157Z,19.15
2019-04-20T06:51:59.400Z,19.23
2019-04-20T06:54:39.439Z,18.86
2019-04-20T06:57:18.397Z,18.76
2019-04-20T06:59:46.002Z,18.91
2019-04-20T07:02:24.582Z,18.73
2019-04-20T07:04:57.863Z,19.61
2019-04-20T07:07:32.107Z,19.67
2019-04-20T07:12:43.658Z,20.46
2019-04-20T07:15:17.479Z,20.76
2019-04-20T07:20:39.706Z,20.70
2019-04-20T07:23:21.338Z,20.58
2019-04-20T07:25:42.310Z,19.92
2019-04-20T07:28:23.858Z,20.37
2019-04-20T07:30:53.942Z,20.74
2019-04-20T07:33:27.010Z,19.34
2019-04-20T07:35:56.016Z,19.27
2019-04-20T07:41:17.555Z,19.38
2019-04-20T07:43:57.439Z,19.12
2019-04-20T07:46:34.813Z,19.11
2019-04-20T07:48:56.432Z,19.69
2019-04-20T07:51:14.515Z,19.36
2019-04-20T07:53:59.496Z,19.49
2019-04-20T07:56:37.065Z,20.02
2019-04-20T07:58:55.281Z,19.99
2019-04-20T08:02:01.198Z,20.13
2019-04-20T08:04:36.798Z,19.71
2019-04-20T08:06:58.472Z,18.98
2019-04-20T08:09:35.021Z,19.98
2019-04-20T08:12:29.362Z,19.08
2019-04-20T08:15:05.077Z,18.84
2019-04-20T08:17:46.751Z,18.83
2019-04-20T08:20:10.790Z,18.50
2019-04-20T08:22:53.124Z,18.26
2019-04-20T08:25:23.982Z,18.68
2019-04-20T08:28:01.522Z,18.38
2019-04-20T08:31:05.118Z,18.17
2019-04-20T08:33:54.938Z,19.52
2019-04-20T08:36:30.007Z,19.89
2019-04-20T08:39:16.930Z,20.77
2019-04-20T08:41:24.909Z,21.73
2019-04-20T08:44:23.834Z,21.54
2019-04-20T08:46:54.806Z,22.15
2019-04-20T08:49:22.084Z,21.42
2019-04-20T08:51:56.842Z,21.68
2019-04-20T08:54:21.641Z,21.69
2019-04-20T08:56:41.492Z,21.84
2019-04-20T08:59:09.685Z,21.05
2019-04-20T09:01:42.646Z,20.89
2019-04-20T09:04:22.244Z,20.35
2019-04-20T09:07:02.681Z,19.98
2019-04-20T09:09:49.951Z,20.44
2019-04-20T09:12:16.742Z,20.24
2019-04-20T09:14:30.265Z,20.60
2019-04-20T09:17:30.150Z,20.16
2019-04-20T09:20:04.152Z,20.43
2019-04-20T09:22:40.547Z,19.89
2019-04-20T09:25:43.035Z,20.08
2019-04-20T09:27:48.791Z,18.86
2019-04-20T09:30:27.867Z,20.46
2019-04-20T09:33:20.741Z,20.15
2019-04-20T09:35:43.141Z,20.57
2019-04-20T09:38:14.463Z,18.59
2019-04-20T09:40:51.401Z,19.29
2019-04-20T09:43:10.973Z,17.88
2019-04-20T09:45:53.705Z,18.43
2019-04-20T09:48:32.035Z,18.66
2019-04-20T09:51:19.199Z,18.42
2019-04-20T09:53:45.471Z,17.50
2019-04-20T09:56:19.342Z,18.03
2019-04-20T09:59:09.827Z,18.19
2019-04-20T10:01:31.252Z,17.33
2019-04-20T10:03:54.765Z,17.31
2019-04-20T10:06:30.709Z,17.62
2019-04-20T10:09:03.847Z,18.70
2019-04-20T10:11:37.381Z,19.37
2019-04-20T10:14:10.400Z,18.08
2019-04-20T10:16:44.030Z,18.46
2019-04-20T10:19:20.660Z,18.07
2019-04-20T10:21:50.643Z,18.22
2019-04-20T10:24:26.351Z,18.66
2019-04-20T10:26:58.754Z,20.10
2019-04-20T10:29:33.595Z,20.07
2019-04-20T10:32:10.157Z,20.17
2019-04-20T10:34:39.287Z,20.38
2019-04-20T10:37:13.480Z,19.05
2019-04-20T10:39:46.799Z,19.85
2019-04-20T10:42:18.665Z,19.21
2019-04-20T10:44:55.159Z,18.75
2019-04-20T10:47:25.430Z,18.96
2019-04-20T10:50:00.861Z,20.44
2019-04-20T10:52:33.968Z,19.45
2019-04-20T10:55:08.369Z,20.04
2019-04-20T10:57:41.646Z,19.83
2019-04-20T11:00:15.588Z,19.35
2019-04-20T11:02:49.646Z,19.36
2019-04-20T11:05:22.880Z,19.10
2019-04-20T11:07:55.118Z,19.04
2019-04-20T11:10:46.138Z,19.15
2019-04-20T11:13:05.378Z,18.24
2019-04-20T11:15:38.735Z,18.40
2019-04-20T11:18:11.330Z,18.16
2019-04-20T11:20:45.653Z,18.16
2019-04-20T11:23:20.334Z,17.21
2019-04-20T11:25:58.049Z,16.65
2019-04-20T11:28:30.290Z,17.91
2019-04-20T11:31:02.064Z,17.62
2019-04-20T11:33:34.245Z,17.41
2019-04-20T11:36:07.428Z,18.61
2019-04-20T11:38:40.662Z,17.34
2019-04-20T11:41:18.927Z,18.66
2019-04-20T11:43:47.175Z,17.09
2019-04-20T11:46:20.720Z,17.73
2019-04-20T11:48:55.208Z,17.28
2019-04-20T11:51:31.755Z,17.97
2019-04-20T11:54:06.092Z,18.50
2019-04-20T11:56:43.938Z,18.85
2019-04-20T11:59:16.683Z,18.83
2019-04-20T12:02:14.340Z,19.12
2019-04-20T12:05:10.249Z,18.88
2019-04-20T12:07:27.129Z,19.53
2019-04-20T12:10:09.034Z,19.21
2019-04-20T12:12:42.104Z,20.22
2019-04-20T12:15:10.694Z,19.23
2019-04-20T12:17:43.876Z,20.22
2019-04-20T12:20:16.760Z,18.79
2019-04-20T12:22:50.445Z,19.97
2019-04-20T12:25:23.707Z,19.62
2019-04-20T12:27:59.923Z,19.29
2019-04-20T12:30:30.530Z,19.21
2019-04-20T12:33:03.852Z,19.48
2019-04-20T12:35:38.261Z,18.97
2019-04-20T12:38:10.503Z,18.04
2019-04-20T12:40:42.443Z,18.17
2019-04-20T12:43:15.138Z,17.63
2019-04-20T12:45:47.684Z,17.64
2019-04-20T12:48:21.706Z,18.25
2019-04-20T12:50:53.479Z,17.47
2019-04-20T12:53:26.419Z,18.19
2019-04-20T12:55:58.821Z,18.95
2019-04-20T12:58:30.681Z,19.24
2019-04-20T13:01:02.622Z,19.26
2019-04-20T13:03:35.230Z,20.14
2019-04-20T13:06:08.388Z,20.14
2019-04-20T13:08:47.602Z,21.00
2019-04-20T13:11:20.395Z,20.81
2019-04-20T13:14:22.203Z,19.99
2019-04-20T13:16:55.266Z,20.43
2019-04-20T13:19:29.054Z,20.44
2019-04-20T13:22:01.244Z,19.63
2019-04-20T13:24:33.086Z,19.97
2019-04-20T13:27:04.912Z,20.69
2019-04-20T13:29:38.164Z,19.71
2019-04-20T13:32:10.095Z,19.04
2019-04-20T13:34:42.325Z,18.86
2019-04-20T13:37:15.904Z,18.53
2019-04-20T13:39:49.047Z,18.23
2019-04-20T13:42:24.754Z,20.45
2019-04-20T13:44:54.935Z,20.45
2019-04-20T13:47:28.161Z,19.37
2019-04-20T13:50:01.098Z,16.75
2019-04-20T13:52:33.216Z,16.75
2019-04-20T13:55:08.723Z,16.32
2019-04-20T13:57:42.864Z,16.21
2019-04-20T14:00:31.635Z,17.29
2019-04-20T14:03:18.327Z,15.73
2019-04-20T14:05:53.308Z,15.90
2019-04-20T14:08:29.268Z,16.53
2019-04-20T14:11:07.322Z,16.66
2019-04-20T14:13:43.476Z,17.71
2019-04-20T14:16:18.946Z,17.78
2019-04-20T14:18:51.725Z,17.71
2019-04-20T14:21:27.914Z,18.28
2019-04-20T14:24:01.713Z,19.19
2019-04-20T14:26:36.068Z,20.21
2019-04-20T14:29:10.355Z,19.85
2019-04-20T14:31:48.368Z,20.40
2019-04-20T14:34:20.675Z,20.03
2019-04-20T14:36:55.108Z,20.31
2019-04-20T14:39:32.193Z,20.88
2019-04-20T14:42:04.634Z,20.56
2019-04-20T14:44:37.484Z,20.68
2019-04-20T14:47:09.784Z,19.82
2019-04-20T14:49:42.910Z,19.52
2019-04-20T14:52:15.504Z,19.48
2019-04-20T14:54:47.726Z,20.39
2019-04-20T14:57:19.581Z,21.40
2019-04-20T14:59:54.303Z,21.57
2019-04-20T15:02:30.149Z,21.99
2019-04-20T15:05:07.427Z,21.53
2019-04-20T15:07:40.711Z,21.39
2019-04-20T15:10:13.123Z,22.00
2019-04-20T15:12:50.881Z,21.55
2019-04-20T15:15:18.785Z,22.71
2019-04-20T15:17:53.497Z,21.26
2019-04-20T15:20:25.624Z,21.44
2019-04-20T15:22:59.508Z,22.19
2019-04-20T15:25:31.706Z,21.31
2019-04-20T15:28:08.294Z,21.62
2019-04-20T15:30:40.770Z,23.50
2019-04-20T15:33:18.966Z,22.21
2019-04-20T15:35:52.402Z,22.47
2019-04-20T15:38:24.980Z,22.69
2019-04-20T15:40:59.440Z,22.61
2019-04-20T15:43:33.219Z,22.75
2019-04-20T15:46:07.489Z,22.94
2019-04-20T15:48:39.867Z,22.90
2019-04-20T15:51:17.127Z,23.00
2019-04-20T15:53:57.687Z,23.04
2019-04-20T15:56:35.567Z,22.96
2019-04-20T15:59:08.470Z,24.10
2019-04-20T16:01:45.070Z,22.76
2019-04-20T16:04:37.572Z,22.86
2019-04-20T16:07:08.436Z,23.13
2019-04-20T16:09:42.163Z,24.20
2019-04-20T16:12:15.198Z,23.41
2019-04-20T16:14:51.265Z,24.23
2019-04-20T16:17:36.374Z,24.30
2019-04-20T16:20:06.435Z,23.95
2019-04-20T16:22:34.744Z,22.92
2019-04-20T16:25:27.613Z,22.33
2019-04-20T16:27:59.422Z,22.86
2019-04-20T16:30:31.811Z,23.51
2019-04-20T16:33:06.164Z,22.79
2019-04-20T16:35:40.606Z,22.59
2019-04-20T16:38:12.538Z,22.56
2019-04-20T16:40:44.467Z,23.11
2019-04-20T16:43:24.593Z,23.11
2019-04-20T16:45:50.963Z,22.86
2019-04-20T16:48:24.085Z,23.74
2019-04-20T16:50:56.473Z,22.85
2019-04-20T16:53:28.791Z,23.44
2019-04-20T16:56:01.166Z,23.23
2019-04-20T16:58:34.123Z,24.08
2019-04-20T17:01:07.687Z,23.43
2019-04-20T17:03:50.236Z,22.85
2019-04-20T17:06:13.845Z,23.18
2019-04-20T17:08:48.318Z,23.53
2019-04-20T17:11:25.709Z,23.29
2019-04-20T17:13:59.924Z,23.08
2019-04-20T17:16:31.668Z,23.52
2019-04-20T17:19:05.973Z,23.56
2019-04-20T17:21:44.532Z,23.97
2019-04-20T17:24:17.887Z,24.22
2019-04-20T17:27:05.748Z,24.06
2019-04-20T17:29:56.678Z,24.61
2019-04-20T17:32:31.603Z,25.30
2019-04-20T17:35:18.132Z,25.03
2019-04-20T17:37:45.084Z,25.42
2019-04-20T17:40:44.262Z,25.57
2019-04-20T17:43:07.527Z,25.91
2019-04-20T17:45:42.142Z,26.32
2019-04-20T17:48:18.887Z,27.08
2019-04-20T17:51:07.762Z,27.75
2019-04-20T17:53:37.210Z,28.70
2019-04-20T17:56:05.288Z,29.89
2019-04-20T17:58:41.325Z,29.77
2019-04-20T18:01:41.279Z,30.74
2019-04-20T18:04:43.006Z,31.21
2019-04-20T18:06:58.917Z,31.82
2019-04-20T18:09:38.651Z,33.01
2019-04-20T18:11:56.325Z,33.11
2019-04-20T18:14:43.086Z,33.60
2019-04-20T18:17:17.854Z,34.44
2019-04-20T18:19:45.028Z,34.64
2019-04-20T18:22:19.578Z,34.89
2019-04-20T18:25:14.724Z,35.96
2019-04-20T18:27:41.206Z,36.06
2019-04-20T18:30:15.526Z,37.09
2019-04-20T18:32:37.834Z,37.20
2019-04-20T18:35:24.598Z,36.73
2019-04-20T18:38:00.896Z,37.20
2019-04-20T18:40:37.228Z,38.55
2019-04-20T18:43:09.354Z,39.90
2019-04-20T18:45:58.304Z,39.89
2019-04-20T18:48:33.493Z,39.45
2019-04-20T18:50:47.402Z,40.53
2019-04-20T18:53:28.648Z,41.01
2019-04-20T18:55:56.035Z,40.73
2019-04-20T18:58:25.204Z,41.17
2019-04-20T19:01:01.632Z,41.52
2019-04-20T19:03:40.326Z,41.86
2019-04-20T19:06:09.042Z,41.71
2019-04-20T19:08:46.907Z,41.77
2019-04-20T19:11:19.749Z,42.23
2019-04-20T19:13:51.210Z,43.49
2019-04-20T19:16:34.848Z,43.48
2019-04-20T19:19:16.359Z,43.30
2019-04-20T19:21:35.292Z,44.74
2019-04-20T19:24:12.166Z,44.93
2019-04-20T19:26:48.153Z,45.79
2019-04-20T19:29:23.155Z,46.92
2019-04-20T19:32:08.825Z,46.86
2019-04-20T19:34:36.527Z,47.28
2019-04-20T19:37:10.102Z,47.32
2019-04-20T19:39:47.070Z,48.36
2019-04-20T19:42:19.525Z,43.99
2019-04-20T19:44:51.797Z,43.54
2019-04-20T19:47:34.845Z,43.32
2019-04-20T19:50:00.270Z,42.91
2019-04-20T19:52:44.814Z,42.77
2019-04-20T19:55:10.516Z,42.88
2019-04-20T19:57:42.202Z,42.73
2019-04-20T19:59:59.814Z,43.04
2019-04-20T20:02:31.950Z,43.09
2019-04-20T20:05:08.835Z,43.28
2019-04-20T20:07:42.622Z,43.47
2019-04-20T20:10:12.993Z,43.63
2019-04-20T20:12:52.773Z,44.02
2019-04-20T20:15:26.404Z,44.59
2019-04-20T20:18:11.241Z,44.75
2019-04-20T20:20:47.346Z,45.22
2019-04-20T20:23:02.461Z,46.24
2019-04-20T20:25:41.071Z,47.71
2019-04-20T20:28:19.096Z,48.88
2019-04-20T20:30:58.170Z,49.46
2019-04-20T20:33:35.096Z,48.92
2019-04-20T20:35:58.630Z,49.66
2019-04-20T20:38:31.676Z,50.21
2019-04-20T20:41:07.778Z,51.29
2019-04-20T20:43:45.736Z,50.77
2019-04-20T20:46:16.296Z,50.79
2019-04-20T20:49:03.461Z,51.50
2019-04-20T20:51:34.610Z,52.22
2019-04-20T20:53:59.298Z,53.21
2019-04-20T20:56:24.045Z,53.69
2019-04-20T20:59:00.836Z,53.03
2019-04-20T21:01:28.189Z,52.28
2019-04-20T21:03:58.529Z,52.23
2019-04-20T21:06:32.774Z,52.28
2019-04-20T21:09:08.160Z,52.04
2019-04-20T21:11:42.284Z,53.25
2019-04-20T21:14:19.932Z,53.90
2019-04-20T21:16:57.526Z,55.08
2019-04-20T21:19:35.294Z,55.60
2019-04-20T21:22:03.230Z,56.90
2019-04-20T21:24:30.369Z,56.54
2019-04-20T21:27:07.882Z,56.37
2019-04-20T21:29:44.436Z,55.39
2019-04-20T21:32:15.984Z,56.49
2019-04-20T21:34:51.772Z,56.58
2019-04-20T21:37:22.435Z,56.61
2019-04-20T21:39:59.013Z,57.63
2019-04-20T21:42:28.530Z,58.25
2019-04-20T21:45:09.509Z,58.18
2019-04-20T21:47:36.489Z,58.73
2019-04-20T21:50:27.114Z,59.15
2019-04-20T21:52:48.519Z,59.45
2019-04-20T21:55:18.242Z,59.70
2019-04-20T21:57:54.962Z,59.93
2019-04-20T22:00:37.577Z,60.26
2019-04-20T22:03:11.339Z,60.46
2019-04-20T22:05:42.308Z,60.41
2019-04-20T22:08:17.482Z,60.67
2019-04-20T22:10:47.363Z,61.26
2019-04-20T22:13:25.462Z,61.73
2019-04-20T22:15:59.530Z,62.76
2019-04-20T22:18:27.160Z,63.72
2019-04-20T22:21:12.309Z,64.13
2019-04-20T22:23:50.357Z,64.26
2019-04-20T22:26:18.749Z,64.59
2019-04-20T22:28:40.382Z,64.33
2019-04-20T22:31:13.893Z,63.56
2019-04-20T22:33:47.322Z,63.48
2019-04-20T22:36:20.199Z,63.50
2019-04-20T22:39:09.637Z,64.04
2019-04-20T22:41:52.463Z,63.85
2019-04-20T22:44:21.374Z,64.47
2019-04-20T22:46:52.265Z,63.86
2019-04-20T22:49:39.961Z,64.40
2019-04-20T22:52:11.831Z,64.44
2019-04-20T22:54:51.851Z,64.62
2019-04-20T22:57:21.616Z,63.99
2019-04-20T22:59:51.880Z,63.12
2019-04-20T23:02:13.494Z,62.90
2019-04-20T23:04:46.648Z,63.79
2019-04-20T23:07:18.945Z,64.17
2019-04-20T23:09:54.529Z,64.15
2019-04-20T23:12:26.960Z,64.48
2019-04-20T23:14:58.563Z,64.38
2019-04-20T23:17:37.264Z,63.95
2019-04-20T23:20:13.298Z,65.36
2019-04-20T23:22:43.927Z,66.25
2019-04-20T23:25:13.461Z,66.64
2019-04-20T23:27:45.810Z,67.92
2019-04-20T23:30:23.659Z,68.39
2019-04-20T23:32:51.784Z,68.44
2019-04-20T23:35:26.624Z,68.76
2019-04-20T23:38:02.931Z,68.41
2019-04-20T23:40:31.929Z,68.25
2019-04-20T23:43:17.729Z,68.75
2019-04-20T23:45:52.920Z,68.79
2019-04-20T23:48:38.973Z,69.08
2019-04-20T23:51:34.695Z,70.57
2019-04-20T23:53:54.009Z,70.03
2019-04-20T23:56:17.454Z,70.39
2019-04-20T23:58:51.826Z,70.30
